Flight Track Log - Related Links

Times and Time Zones

All times are in EDT time to prevent confusion due to time zone crossing. See the DAL268 flight status page for this flight to view local times or setup timezone preferences in your user account.

Time Position Orientation Groundspeed Altitude Reporting Facility
EDT Latitude Longitude Course Direction KTS MPH feet Rate Location/Type
Fri 06:21:37 PM 33.6167 -84.5167 64° Northeast 222 255 3,000  Level Atlanta TRACON
Fri 06:22:37 PM 33.5667 -84.5833 228° Southwest 268 308 5,400 2,474 Climbing Atlanta TRACON
Fri 06:23:00 PM 33.7118 -84.0040 101° East  Level FlightAware Approximate
Fri 06:23:31 PM 33.5000 -84.5833 180° South 258 297 7,700  Level Atlanta TRACON
Fri 06:24:00 PM 33.6886 -83.8646 101° East  Level FlightAware Approximate
Fri 06:25:00 PM 33.6653 -83.7253 101° East  Level FlightAware Approximate
Fri 06:25:58 PM 33.4536 -84.3700 105° East 317 365 12,000  Level Atlanta Center
Fri 06:26:00 PM 33.6677 -83.5901 64° Northeast  Level FlightAware Approximate
Fri 06:26:58 PM 33.4683 -84.2456 82° East 355 409 14,300  Level Atlanta Center
Fri 06:27:58 PM 33.5186 -84.1236 64° Northeast 390 449 16,000 1,750 Climbing Atlanta Center
Fri 06:28:58 PM 33.5708 -84.0014 63° Northeast 397 457 17,800 1,400 Climbing Atlanta Center
Fri 06:29:58 PM 33.6125 -83.8692 69° East 411 473 18,800 1,100 Climbing Atlanta Center
Fri 06:30:58 PM 33.6436 -83.7244 75° East 434 499 20,000 1,200 Climbing Atlanta Center
Fri 06:31:58 PM 33.6828 -83.5794 72° East 440 506 21,200 1,150 Climbing Atlanta Center
Fri 06:32:58 PM 33.7386 -83.4392 64° Northeast 453 521 22,300 850 Climbing Atlanta Center
Fri 06:33:58 PM 33.7983 -83.2964 63° Northeast 471 542 22,900 900 Climbing Atlanta Center
Fri 06:34:58 PM 33.8619 -83.1431 63° Northeast 496 571 24,100 1,050 Climbing Atlanta Center
Fri 06:35:58 PM 33.9192 -82.9950 65° Northeast 496 571 25,000 450 Climbing Atlanta Center
Fri 06:36:58 PM 33.9806 -82.8414 64° Northeast 496 571 25,000  Level Atlanta Center
Fri 06:37:58 PM 34.0353 -82.7078 64° Northeast 491 565 25,000  Level Atlanta Center
Fri 06:38:58 PM 34.0922 -82.5589 65° Northeast 485 558 25,000  Level Atlanta Center
Fri 06:39:58 PM 34.1569 -82.3944 65° Northeast 485 558 25,000  Level Atlanta Center
Fri 06:40:58 PM 34.2153 -82.2428 65° Northeast 485 558 25,000  Level Atlanta Center
Fri 06:41:58 PM 34.2797 -82.0981 62° Northeast 485 558 25,000  Level Atlanta Center
Fri 06:42:58 PM 34.3506 -81.9556 59° Northeast 485 558 25,000  Level Atlanta Center
Fri 06:43:58 PM 34.4189 -81.8153 59° Northeast 485 558 25,000  Level Atlanta Center
Fri 06:44:58 PM 34.4894 -81.6775 58° Northeast 485 558 25,000  Level Atlanta Center
Fri 06:45:58 PM 34.5597 -81.5342 59° Northeast 485 558 25,000  Level Atlanta Center
Fri 06:46:58 PM 34.6317 -81.3881 59° Northeast 479 551 25,000  Level Atlanta Center
Fri 06:47:58 PM 34.6975 -81.2522 59° Northeast 479 551 25,000  Level Atlanta Center
Fri 06:48:58 PM 34.7694 -81.1056 59° Northeast 486 559 25,000  Level Atlanta Center
Fri 06:50:45 PM 34.8836 -80.8683 60° Northeast 477 549 25,000  Level Washington Center
Fri 06:51:45 PM 34.9567 -80.7211 59° Northeast 483 556 25,000  Level Washington Center
Fri 06:52:46 PM 35.0256 -80.5783 59° Northeast 490 564 25,000  Level Washington Center
Fri 06:53:47 PM 35.0961 -80.4306 60° Northeast 490 564 25,000  Level Washington Center
Fri 06:54:45 PM 35.1669 -80.2822 60° Northeast 495 570 25,000  Level Washington Center
Fri 06:55:46 PM 35.2372 -80.1364 59° Northeast 490 564 25,000  Level Washington Center
Fri 06:56:47 PM 35.3053 -79.9925 60° Northeast 493 567 25,000  Level Washington Center
Fri 06:57:47 PM 35.3608 -79.8378 66° East 493 567 25,000  Level Washington Center
Fri 06:58:45 PM 35.4058 -79.6819 70° East 493 567 25,000  Level Washington Center
Fri 06:59:45 PM 35.4550 -79.5239 69° East 488 562 25,000  Level Washington Center
Fri 07:00:46 PM 35.5019 -79.3681 70° East 483 556 25,000  Level Washington Center
Fri 07:01:46 PM 35.5483 -79.2144 70° East 483 556 25,000  Level Washington Center
Fri 07:02:47 PM 35.5906 -79.0581 72° East 478 550 25,000  Level Washington Center
Fri 07:03:46 PM 35.6389 -78.9017 69° East 478 550 25,000  Level Washington Center
Fri 07:04:47 PM 35.6892 -78.7300 70° East 478 550 25,000  Level Washington Center
Fri 07:05:47 PM 35.7350 -78.5706 70° East 483 556 25,000  Level Washington Center
Fri 07:06:45 PM 35.8033 -78.4272 60° Northeast 483 556 25,000  Level Washington Center
Fri 07:07:46 PM 35.8897 -78.2969 51° Northeast 481 554 25,000  Level Washington Center
Fri 07:08:46 PM 35.9761 -78.1689 50° Northeast 486 559 25,000  Level Washington Center
Fri 07:09:48 PM 36.0622 -78.0381 51° Northeast 486 559 25,000  Level Washington Center
Fri 07:10:46 PM 36.1483 -77.9044 51° Northeast 486 559 25,000  Level Washington Center
Fri 07:11:48 PM 36.2300 -77.7731 52° Northeast 486 559 25,000 252 Level Washington Center
Fri 07:12:45 PM 36.3139 -77.6414 52° Northeast 486 559 25,500 966 Climbing Washington Center
Fri 07:13:46 PM 36.3994 -77.5042 52° Northeast 486 559 26,900 744 Climbing Washington Center
Fri 07:14:46 PM 36.4744 -77.3897 51° Northeast 481 554 27,000 50 Climbing Washington Center
Fri 07:15:47 PM 36.5678 -77.2678 46° Northeast 476 548 27,000  Level Washington Center
Fri 07:16:48 PM 36.6633 -77.1533 44° Northeast 476 548 27,000  Level Washington Center
Fri 07:17:46 PM 36.7628 -77.0386 43° Northeast 476 548 27,000  Level Washington Center
Fri 07:18:46 PM 36.8581 -76.9236 44° Northeast 476 548 27,000  Level Washington Center
Fri 07:19:47 PM 36.9531 -76.8056 45° Northeast 476 548 27,000  Level Washington Center
Fri 07:20:46 PM 37.0503 -76.6875 44° Northeast 481 554 27,000  Level Washington Center
Fri 07:21:46 PM 37.1472 -76.5689 44° Northeast 481 554 27,000  Level Washington Center
Fri 07:22:46 PM 37.2525 -76.4400 44° Northeast 486 559 27,000  Level Washington Center
Fri 07:23:47 PM 37.3514 -76.3208 44° Northeast 486 559 27,000  Level Washington Center
Fri 07:24:47 PM 37.4478 -76.2039 44° Northeast 486 559 27,000  Level Washington Center
Fri 07:25:46 PM 37.5486 -76.0922 41° Northeast 481 554 27,000  Level Washington Center
Fri 07:26:46 PM 37.6469 -75.9722 44° Northeast 481 554 27,000  Level Washington Center
Fri 07:27:47 PM 37.7433 -75.8544 44° Northeast 476 548 27,000  Level Washington Center
Fri 07:28:45 PM 37.8414 -75.7364 44° Northeast 476 548 27,000  Level Washington Center
Fri 07:29:45 PM 37.9394 -75.6156 44° Northeast 481 554 27,000  Level Washington Center
Fri 07:30:46 PM 38.0250 -75.5075 45° Northeast 481 554 27,000  Level Washington Center
Fri 07:31:47 PM 38.1356 -75.4122 34° Northeast 481 554 27,000  Level Washington Center
Fri 07:32:47 PM 38.2583 -75.3431 24° Northeast 471 542 27,000  Level Washington Center
Fri 07:33:46 PM 38.3750 -75.2658 27° Northeast 471 542 27,000  Level Washington Center
Fri 07:34:46 PM 38.4956 -75.1886 27° Northeast 471 542 27,000  Level Washington Center
Fri 07:35:45 PM 38.6122 -75.1189 25° Northeast 471 542 27,000  Level Washington Center
Fri 07:36:46 PM 38.7306 -75.0381 28° Northeast 471 542 27,000  Level Washington Center
Fri 07:37:46 PM 38.8492 -74.9625 26° Northeast 471 542 27,000 -50 Level Washington Center
Fri 07:38:47 PM 38.9694 -74.8789 28° Northeast 471 542 26,900  Descending Washington Center
Fri 07:39:45 PM 39.0794 -74.7842 34° Northeast 471 542 27,000 -403 Climbing Washington Center
Fri 07:40:46 PM 39.1850 -74.6786 38° Northeast 471 542 26,100 -1,563 Descending Washington Center
Fri 07:42:07 PM 39.3172 -74.5439 38° Northeast 471 542 23,300 -1,830 Descending New York Center
Fri 07:43:07 PM 39.4078 -74.4547 37° Northeast 438 504 21,800 -1,729 Descending New York Center
Fri 07:44:05 PM 39.4853 -74.3725 39° Northeast 390 449 19,900 -1,916 Descending New York Center
Fri 07:45:06 PM 39.5714 -74.2828 39° Northeast 359 413 18,000 -1,180 Descending New York Center
Fri 07:46:07 PM 39.6489 -74.2731 North 313 360 17,500 -1,041 Descending New York Center
Fri 07:47:07 PM 39.7333 -74.3044 344° North 300 345 15,900 -1,322 Descending New York Center
Fri 07:48:05 PM 39.8269 -74.3117 357° North 308 354 14,900 -756 Descending New York Center
Fri 07:49:06 PM 39.8572 -74.2078 69° East 266 306 14,400 -800 Descending New York Center
Fri 07:50:05 PM 39.8625 -74.0919 87° East 293 337 13,300 -1,059 Descending New York Center
Fri 07:51:05 PM 39.8883 -73.9903 72° East 316 364 12,300 -992 Descending New York Center
Fri 07:52:06 PM 39.9675 -73.9128 37° Northeast 303 349 11,300 -645 Descending New York Center
Fri 07:53:06 PM 40.0381 -73.8481 35° Northeast 303 349 11,000 -303 Descending New York Center
Fri 07:54:05 PM 40.1192 -73.8517 358° North 285 328 10,700 -655 Descending New York Center
Fri 07:55:05 PM 40.1919 -73.8631 353° North 285 328 9,700 -850 Descending New York Center
Fri 07:56:05 PM 40.2794 -73.8589 North 290 334 9,000 -733 Descending New York Center
Fri 07:57:16 PM 40.2833 -73.7500 87° East 259 298 8,100 -641 Descending New York TRACON
Fri 07:58:16 PM 40.3167 -73.6667 62° Northeast 255 293 7,600 -541 Descending New York TRACON
Fri 07:59:07 PM 40.3417 -73.6247 52° Northeast 243 280 7,100 -330 Descending New York Center
Fri 08:00:05 PM 40.4056 -73.5728 32° Northeast 243 280 7,000 -50 Descending New York Center
Fri 08:01:06 PM 40.4586 -73.5314 31° Northeast 243 280 7,000 -347 Level New York Center
Fri 08:02:06 PM 40.5222 -73.4822 30° Northeast 243 280 6,300 -750 Descending New York Center
Fri 08:03:06 PM 40.5775 -73.4378 31° Northeast 243 280 5,500 -750 Descending New York Center
Fri 08:04:06 PM 40.6411 -73.3911 29° Northeast 243 280 4,800 -692 Descending New York Center
Fri 08:05:16 PM 40.7167 -73.3667 14° North 235 270 4,000 -377 Descending New York TRACON
Fri 08:07:17 PM 40.8333 -73.4333 337° Northwest 196 226 3,600 -400 Descending New York TRACON
Fri 08:08:16 PM 40.8667 -73.4833 311° West 177 204 2,800 -756 Descending New York TRACON
Fri 08:09:16 PM 40.8667 -73.5333 270° West 163 188 2,100 -397 Descending New York TRACON
Fri 08:10:17 PM 40.8500 -73.5833 246° West 156 180 2,000 -50 Descending New York TRACON
Fri 08:11:17 PM 40.8167 -73.6167 217° Southwest 155 178 2,000  Level New York TRACON
Fri 08:12:16 PM 40.7833 -73.6500 217° Southwest 154 177 2,000  Level New York TRACON
Fri 08:13:16 PM 40.7500 -73.6833 217° Southwest 150 173 2,000  Level New York TRACON

Login

Don't have an account? Register now (free) for customized features, flight alerts, and more!